Thursday, November 23, 2017, 6:22 PM GMT
Back to Local

CWQP, Point Petre , Ont.

Location: , , Canada Lat: 43.833
Local Time: 6:22 PM GMT (18:22 GMT) Lon: -77.15
Time Zone: GMT Elev: 259 ft

Show me the last for .
Show Coded

Time T Td Feel RH Dir Speed Gust Alt SLP Vis Weather Sky Remarks
2017-11-23 18:00 39 31 29 73 230° 23 - - 30.00 0 Peak wind: 28 mph (25 kts) from 230° at 38 min
2017-11-23 17:00 37 27 26 66 250° 14 22 - 30.03 0 Peak wind: 23 mph (20 kts) from 240° at 44 min
2017-11-23 16:00 37 28 29 71 240° 12 - - 30.06 0 None
2017-11-23 15:00 31 26 27 81 20° 3 - - 30.09 0 None
2017-11-23 14:00 28 22 - 79 40° 2 - - 30.12 0 None
2017-11-23 13:00 26 20 19 76 40° 6 - - 30.12 0 None
2017-11-23 12:00 24 18 18 77 40° 5 - - 30.12 0 1-hr Precip Total: 0.01"
2017-11-23 11:00 24 17 19 77 40° 3 - - 30.15 0 None
2017-11-23 10:00 23 18 17 80 20° 5 - - 30.16 0 None
2017-11-23 09:00 22 16 13 79 10° 7 - - 30.17 0 None
2017-11-23 08:00 21 15 13 77 350° 6 - - 30.18 0 None
2017-11-23 07:00 22 15 13 73 350° 7 - - 30.17 0 None
2017-11-23 06:00 23 15 14 73 340° 7 - - 30.18 0 None
2017-11-23 05:00 23 15 15 70 340° 7 - - 30.19 0 None
2017-11-23 04:00 24 16 15 69 330° 8 - - 30.20 0 None
2017-11-23 03:00 25 16 14 68 330° 10 - - 30.20 0 None
2017-11-23 02:00 25 16 12 67 320° 10 17 - 30.21 0 Peak wind: 20 mph (18 kts) from 320° at 43 min
2017-11-23 01:00 26 16 12 66 310° 12 18 - 30.21 0 Peak wind: 24 mph (21 kts) from 330° at 16 min
2017-11-23 00:00 27 18 13 67 320° 15 21 - 30.21 0 Peak wind: 24 mph (21 kts) from 310° at 39 min
2017-11-22 23:00 29 22 15 75 310° 16 23 - 30.19 0 Peak wind: 24 mph (21 kts) from 310° at 17 min
2017-11-22 22:00 31 23 18 71 300° 17 23 - 30.17 0 Peak wind: 24 mph (21 kts) from 300° at 47 min
2017-11-22 21:00 33 23 21 67 320° 14 22 - 30.14 0 Peak wind: 21 mph (19 kts) from 310° at 50 min
2017-11-22 20:00 34 25 23 70 330° 12 17 - 30.10 0 Peak wind: 21 mph (19 kts) from 320° at 23 min
2017-11-22 19:00 35 27 23 72 320° 15 23 - 30.10 0 Peak wind: 23 mph (20 kts) from 300° at 53 min

Support USWX by starting your Amazon purchase here.